createdAt,value
2019-02-20T00:01:32.606Z,54.17
2019-02-20T00:04:01.578Z,49.90
2019-02-20T00:06:36.522Z,45.27
2019-02-20T00:09:06.745Z,43.95
2019-02-20T00:11:37.884Z,49.87
2019-02-20T00:14:27.779Z,50.47
2019-02-20T00:16:56.662Z,44.90
2019-02-20T00:22:23.924Z,42.47
2019-02-20T00:25:26.831Z,38.43
2019-02-20T00:27:56.007Z,46.90
2019-02-20T00:30:31.039Z,45.83
2019-02-20T00:32:59.931Z,50.17
2019-02-20T00:35:29.124Z,51.53
2019-02-20T00:37:58.010Z,62.80
2019-02-20T00:40:28.355Z,48.10
2019-02-20T00:42:57.222Z,41.83
2019-02-20T00:48:34.939Z,51.30
2019-02-20T00:51:23.999Z,38.95
2019-02-20T00:53:57.490Z,48.27
2019-02-20T00:56:26.488Z,39.53
2019-02-20T00:58:55.502Z,45.57
2019-02-20T01:04:22.656Z,41.02
2019-02-20T01:06:58.602Z,37.75
2019-02-20T01:09:27.546Z,39.37
2019-02-20T01:11:56.373Z,42.60
2019-02-20T01:14:25.278Z,44.43
2019-02-20T01:16:54.085Z,43.87
2019-02-20T01:19:22.742Z,44.97
2019-02-20T01:21:51.628Z,40.97
2019-02-20T01:24:20.215Z,45.40
2019-02-20T01:26:49.207Z,40.23
2019-02-20T01:29:18.099Z,37.95
2019-02-20T01:31:46.719Z,39.40
2019-02-20T01:34:15.563Z,44.70
2019-02-20T01:36:44.474Z,40.30
2019-02-20T01:39:13.342Z,40.57
2019-02-20T01:41:42.227Z,46.07
2019-02-20T01:44:11.249Z,40.25
2019-02-20T01:46:40.115Z,42.30
2019-02-20T01:49:08.996Z,44.30
2019-02-20T01:51:38.014Z,40.97
2019-02-20T01:54:06.978Z,42.77
2019-02-20T01:56:35.872Z,43.90
2019-02-20T01:59:06.193Z,47.45
2019-02-20T02:01:34.921Z,41.80
2019-02-20T02:04:03.790Z,53.03
2019-02-20T02:06:33.572Z,44.47
2019-02-20T02:09:05.129Z,41.43
2019-02-20T02:11:45.179Z,48.23
2019-02-20T02:14:14.895Z,50.43
2019-02-20T02:16:43.666Z,41.83
2019-02-20T02:19:12.869Z,47.95
2019-02-20T02:21:41.753Z,44.53
2019-02-20T02:24:11.292Z,50.80
2019-02-20T02:26:40.050Z,45.60
2019-02-20T02:29:08.733Z,46.40
2019-02-20T02:31:37.932Z,45.80
2019-02-20T02:34:06.610Z,43.70
2019-02-20T02:36:35.443Z,41.53
2019-02-20T02:39:05.105Z,43.07
2019-02-20T02:41:34.414Z,46.43
2019-02-20T02:44:03.301Z,45.50
2019-02-20T02:46:32.608Z,45.58
2019-02-20T02:49:01.485Z,43.87
2019-02-20T02:51:30.804Z,49.33
2019-02-20T02:53:59.675Z,45.17
2019-02-20T02:56:28.562Z,41.83
2019-02-20T02:58:57.250Z,47.05
2019-02-20T03:01:26.364Z,40.50
2019-02-20T03:03:55.561Z,39.93
2019-02-20T03:06:24.433Z,42.58
2019-02-20T03:08:53.313Z,39.87
2019-02-20T03:11:22.206Z,39.50
2019-02-20T03:13:51.204Z,44.47
2019-02-20T03:16:19.884Z,42.40
2019-02-20T03:18:48.770Z,42.53
2019-02-20T03:21:17.463Z,45.80
2019-02-20T03:23:46.654Z,40.20
2019-02-20T03:26:15.231Z,47.53
2019-02-20T03:28:44.122Z,40.73
2019-02-20T03:31:13.460Z,46.57
2019-02-20T03:33:42.824Z,49.55
2019-02-20T03:36:12.022Z,45.80
2019-02-20T03:38:41.111Z,37.08
2019-02-20T03:41:16.862Z,47.33
2019-02-20T03:43:45.647Z,45.53
2019-02-20T03:46:14.534Z,53.25
2019-02-20T03:48:43.427Z,45.57
2019-02-20T03:51:12.722Z,47.53
2019-02-20T03:53:51.263Z,42.77
2019-02-20T03:56:13.396Z,49.60
2019-02-20T03:58:42.257Z,49.83
2019-02-20T04:01:11.429Z,44.24
2019-02-20T04:03:40.345Z,48.37
2019-02-20T04:06:09.127Z,55.37
2019-02-20T04:08:37.908Z,56.20
2019-02-20T04:11:06.815Z,54.83
2019-02-20T04:13:35.658Z,59.97
2019-02-20T04:16:05.915Z,50.10
2019-02-20T04:18:35.536Z,56.80
2019-02-20T04:21:04.409Z,58.80
2019-02-20T04:23:33.298Z,54.00
2019-02-20T04:26:02.095Z,45.92
2019-02-20T04:28:31.073Z,56.67
2019-02-20T04:30:59.652Z,55.15
2019-02-20T04:33:28.546Z,61.57
2019-02-20T04:35:57.635Z,61.05
2019-02-20T04:38:27.559Z,52.87
2019-02-20T04:40:56.441Z,55.90
2019-02-20T04:43:25.333Z,60.57
2019-02-20T04:45:54.218Z,51.83
2019-02-20T04:48:23.118Z,62.30
2019-02-20T04:50:52.000Z,60.47
2019-02-20T04:53:20.788Z,62.50
2019-02-20T04:55:49.675Z,65.40
2019-02-20T04:58:19.794Z,57.87
2019-02-20T05:00:48.677Z,62.47
2019-02-20T05:03:17.461Z,63.70
2019-02-20T05:05:46.458Z,66.10
2019-02-20T05:08:15.345Z,65.30
2019-02-20T05:10:44.365Z,80.33
2019-02-20T05:13:15.896Z,76.00
2019-02-20T05:15:44.788Z,78.40
2019-02-20T05:18:13.566Z,79.30
2019-02-20T05:20:43.477Z,74.42
2019-02-20T05:23:12.576Z,78.07
2019-02-20T05:25:41.463Z,74.30
2019-02-20T05:28:10.251Z,76.95
2019-02-20T05:30:39.239Z,80.40
2019-02-20T05:33:07.827Z,74.50
2019-02-20T05:35:36.719Z,80.87
2019-02-20T05:38:06.454Z,75.53
2019-02-20T05:40:35.623Z,69.20
2019-02-20T05:43:05.966Z,81.25
2019-02-20T05:45:34.852Z,75.73
2019-02-20T05:48:03.610Z,90.00
2019-02-20T05:50:32.509Z,86.20
2019-02-20T05:53:01.403Z,89.67
2019-02-20T05:55:30.297Z,90.50
2019-02-20T05:57:59.477Z,96.25
2019-02-20T06:00:31.460Z,95.17
2019-02-20T06:03:00.338Z,89.87
2019-02-20T06:05:29.425Z,116.33
2019-02-20T06:07:58.316Z,113.33
2019-02-20T06:10:27.202Z,114.00
2019-02-20T06:12:56.089Z,116.10
2019-02-20T06:15:24.982Z,110.67
2019-02-20T06:17:53.870Z,108.33
2019-02-20T06:20:22.764Z,115.95
2019-02-20T06:22:52.471Z,111.52
2019-02-20T06:25:21.378Z,102.80
2019-02-20T06:27:51.266Z,85.33
2019-02-20T06:30:19.880Z,92.13
2019-02-20T06:32:48.944Z,96.97
2019-02-20T06:35:17.632Z,121.00
2019-02-20T06:37:46.523Z,117.50
2019-02-20T06:40:15.099Z,130.47
2019-02-20T06:42:43.988Z,111.97
2019-02-20T06:45:12.974Z,102.43
2019-02-20T06:47:42.010Z,98.37
2019-02-20T06:50:12.722Z,111.86
2019-02-20T06:52:41.917Z,116.62
2019-02-20T06:55:12.362Z,127.08
2019-02-20T06:57:41.413Z,131.45
2019-02-20T07:00:12.231Z,122.40
2019-02-20T07:02:41.470Z,134.53
2019-02-20T07:05:28.497Z,130.90
2019-02-20T07:08:15.174Z,119.28
2019-02-20T07:10:48.857Z,133.13
2019-02-20T07:13:18.653Z,155.40
2019-02-20T07:16:04.064Z,136.50
2019-02-20T07:18:34.694Z,136.97
2019-02-20T07:21:05.215Z,145.70
2019-02-20T07:23:37.429Z,131.32
2019-02-20T07:26:08.043Z,127.87
2019-02-20T07:28:40.943Z,131.20
2019-02-20T07:31:09.780Z,158.47
2019-02-20T07:33:38.673Z,136.70
2019-02-20T07:36:07.201Z,134.10
2019-02-20T07:38:36.048Z,127.77
2019-02-20T07:41:06.262Z,126.56
2019-02-20T07:43:35.434Z,130.17
2019-02-20T07:46:04.479Z,127.43
2019-02-20T07:48:33.443Z,260.93
2019-02-20T07:51:02.534Z,199.60
2019-02-20T07:53:31.321Z,153.20
2019-02-20T07:56:00.721Z,118.83
2019-02-20T07:58:30.353Z,105.47
2019-02-20T08:00:59.555Z,101.00
2019-02-20T08:03:29.671Z,99.60
2019-02-20T08:05:59.970Z,98.67
2019-02-20T08:08:28.760Z,99.03
2019-02-20T08:10:57.797Z,88.30
2019-02-20T08:13:26.923Z,95.70
2019-02-20T08:15:55.912Z,94.80
2019-02-20T08:18:24.742Z,106.12
2019-02-20T08:20:53.710Z,119.77
2019-02-20T08:23:23.051Z,120.57
2019-02-20T08:25:52.778Z,129.40
2019-02-20T08:28:21.713Z,127.50
2019-02-20T08:30:50.845Z,124.67
2019-02-20T08:33:19.767Z,119.33
2019-02-20T08:35:49.537Z,105.90
2019-02-20T08:38:18.579Z,110.08
2019-02-20T08:40:47.770Z,156.33
2019-02-20T08:43:16.610Z,136.37
2019-02-20T08:45:45.779Z,115.47
2019-02-20T08:48:14.892Z,135.57
2019-02-20T08:50:44.122Z,142.70
2019-02-20T08:53:13.573Z,141.53
2019-02-20T08:55:42.753Z,118.30
2019-02-20T08:58:13.942Z,127.83
2019-02-20T09:00:43.107Z,129.23
2019-02-20T09:03:11.912Z,126.43
2019-02-20T09:05:40.842Z,125.33
2019-02-20T09:08:10.146Z,117.07
2019-02-20T09:10:39.685Z,102.55
2019-02-20T09:13:08.573Z,112.60
2019-02-20T09:15:37.885Z,103.40
2019-02-20T09:18:07.167Z,103.50
2019-02-20T09:20:36.492Z,110.90
2019-02-20T09:23:06.468Z,103.60
2019-02-20T09:25:41.521Z,98.33
2019-02-20T09:28:06.242Z,80.10
2019-02-20T09:30:35.311Z,79.83
2019-02-20T09:33:04.357Z,77.30
2019-02-20T09:35:36.734Z,77.95
2019-02-20T09:38:06.072Z,82.40
2019-02-20T09:40:36.609Z,78.80
2019-02-20T09:43:06.922Z,91.77
2019-02-20T09:45:42.151Z,77.77
2019-02-20T09:48:06.575Z,79.33
2019-02-20T09:50:35.830Z,77.47
2019-02-20T09:53:05.819Z,76.07
2019-02-20T09:55:34.810Z,81.35
2019-02-20T09:58:03.854Z,70.77
2019-02-20T10:00:34.736Z,73.30
2019-02-20T10:03:04.805Z,67.57
2019-02-20T10:05:33.673Z,67.60
2019-02-20T10:08:04.451Z,62.20
2019-02-20T10:10:33.379Z,60.20
2019-02-20T10:13:02.414Z,65.57
2019-02-20T10:15:30.971Z,69.10
2019-02-20T10:17:59.870Z,62.43
2019-02-20T10:20:29.285Z,57.58
2019-02-20T10:22:58.154Z,59.27
2019-02-20T10:25:27.038Z,56.50
2019-02-20T10:27:56.243Z,53.63
2019-02-20T10:30:25.946Z,57.73
2019-02-20T10:32:54.836Z,51.73
2019-02-20T10:35:23.722Z,50.87
2019-02-20T10:37:53.599Z,52.98
2019-02-20T10:40:22.221Z,49.50
2019-02-20T10:42:51.367Z,48.37
2019-02-20T10:45:20.001Z,49.37
2019-02-20T10:47:48.582Z,53.42
2019-02-20T10:50:17.162Z,48.60
2019-02-20T10:52:46.182Z,47.57
2019-02-20T10:55:15.153Z,46.18
2019-02-20T10:57:44.054Z,46.05
2019-02-20T11:00:26.720Z,42.00
2019-02-20T11:02:56.725Z,39.67
2019-02-20T11:05:25.166Z,40.05
2019-02-20T11:07:56.149Z,34.05
2019-02-20T11:10:26.606Z,35.17
2019-02-20T11:12:56.007Z,37.80
2019-02-20T11:15:24.586Z,39.15
2019-02-20T11:17:53.475Z,41.23
2019-02-20T11:20:49.419Z,35.37
2019-02-20T11:23:14.944Z,35.90
2019-02-20T11:25:43.494Z,38.10
2019-02-20T11:28:15.169Z,41.60
2019-02-20T11:30:44.333Z,41.27
2019-02-20T11:33:13.241Z,42.60
2019-02-20T11:35:42.638Z,36.68
2019-02-20T11:38:11.551Z,33.80
2019-02-20T11:40:42.132Z,39.67
2019-02-20T11:43:14.109Z,39.42
2019-02-20T11:45:42.691Z,39.83
2019-02-20T11:48:11.408Z,43.77
2019-02-20T11:50:40.471Z,40.83
2019-02-20T11:53:09.241Z,41.77
2019-02-20T11:55:37.842Z,42.03
2019-02-20T11:58:06.423Z,42.30
2019-02-20T12:00:36.755Z,45.10
2019-02-20T12:03:06.345Z,41.94
2019-02-20T12:05:35.242Z,43.97
2019-02-20T12:08:03.820Z,41.37
2019-02-20T12:10:32.915Z,47.70
2019-02-20T12:13:01.502Z,45.88
2019-02-20T12:15:30.112Z,42.25
2019-02-20T12:17:58.658Z,46.20
2019-02-20T12:20:27.555Z,41.13
2019-02-20T12:22:56.641Z,45.83
2019-02-20T12:25:25.851Z,43.08
2019-02-20T12:27:54.552Z,47.75
2019-02-20T12:30:23.119Z,47.10
2019-02-20T12:32:51.997Z,43.60
2019-02-20T12:35:20.786Z,45.50
2019-02-20T12:37:49.678Z,40.43
2019-02-20T12:40:18.258Z,45.67
2019-02-20T12:42:46.846Z,44.15
2019-02-20T12:45:15.423Z,44.67
2019-02-20T12:47:44.419Z,38.73
2019-02-20T12:50:13.935Z,39.35
2019-02-20T12:52:42.806Z,43.20
2019-02-20T12:55:11.621Z,44.07
2019-02-20T12:57:40.589Z,39.73
2019-02-20T13:00:11.337Z,38.67
2019-02-20T13:02:40.307Z,37.00
2019-02-20T13:05:09.333Z,37.47
2019-02-20T13:07:39.225Z,33.87
2019-02-20T13:10:09.128Z,37.37
2019-02-20T13:12:38.320Z,38.33
2019-02-20T13:15:10.573Z,37.80
2019-02-20T13:17:39.985Z,31.77
2019-02-20T13:20:09.905Z,33.03
2019-02-20T13:22:38.689Z,32.50
2019-02-20T13:25:07.994Z,32.73
2019-02-20T13:27:36.889Z,27.93
2019-02-20T13:30:08.019Z,29.43
2019-02-20T13:32:36.913Z,28.10
2019-02-20T13:35:06.738Z,30.73
2019-02-20T13:37:35.816Z,24.40
2019-02-20T13:40:07.568Z,26.97
2019-02-20T13:42:36.357Z,26.93
2019-02-20T13:45:08.068Z,27.00
2019-02-20T13:47:36.905Z,26.10
2019-02-20T13:50:11.705Z,26.96
2019-02-20T13:52:40.309Z,29.63
2019-02-20T13:55:08.898Z,30.23
2019-02-20T13:57:37.787Z,29.50
2019-02-20T14:00:08.106Z,28.35
2019-02-20T14:02:37.205Z,28.30
2019-02-20T14:05:07.521Z,27.00
2019-02-20T14:07:36.430Z,24.97
2019-02-20T14:10:10.039Z,29.82
2019-02-20T14:12:40.339Z,26.80
2019-02-20T14:15:10.459Z,24.95
2019-02-20T14:17:40.577Z,23.40
2019-02-20T14:20:10.392Z,25.25
2019-02-20T14:22:40.196Z,27.55
2019-02-20T14:25:09.821Z,26.17
2019-02-20T14:27:39.609Z,29.80
2019-02-20T14:30:11.278Z,27.27
2019-02-20T14:32:40.275Z,28.12
2019-02-20T14:35:14.947Z,33.28
2019-02-20T14:37:44.380Z,29.48
2019-02-20T14:40:13.704Z,27.20
2019-02-20T14:42:42.675Z,28.53
2019-02-20T14:45:12.572Z,31.87
2019-02-20T14:47:41.278Z,31.25
2019-02-20T14:50:10.875Z,30.53
2019-02-20T14:52:41.197Z,29.17
2019-02-20T14:55:10.500Z,26.48
2019-02-20T14:57:39.696Z,28.10
2019-02-20T15:00:10.882Z,29.10
2019-02-20T15:02:40.242Z,23.27
2019-02-20T15:05:08.821Z,26.73
2019-02-20T15:07:37.818Z,26.27
2019-02-20T15:10:07.496Z,30.50
2019-02-20T15:12:36.510Z,27.00
2019-02-20T15:15:12.976Z,27.30
2019-02-20T15:17:41.768Z,26.25
2019-02-20T15:20:11.208Z,30.14
2019-02-20T15:22:40.593Z,26.97
2019-02-20T15:25:09.872Z,24.45
2019-02-20T15:27:38.553Z,28.30
2019-02-20T15:30:08.985Z,28.40
2019-02-20T15:32:37.867Z,30.80
2019-02-20T15:35:07.034Z,30.27
2019-02-20T15:37:36.073Z,28.77
2019-02-20T15:40:07.487Z,29.98
2019-02-20T15:42:36.285Z,31.45
2019-02-20T15:45:08.050Z,29.48
2019-02-20T15:47:40.172Z,28.52
2019-02-20T15:50:10.662Z,28.07
2019-02-20T15:52:41.367Z,30.02
2019-02-20T15:55:11.394Z,32.10
2019-02-20T15:57:40.484Z,31.25
2019-02-20T16:00:16.091Z,27.43
2019-02-20T16:02:46.963Z,28.73
2019-02-20T16:05:16.058Z,30.77
2019-02-20T16:07:44.635Z,36.50
2019-02-20T16:10:13.629Z,30.10
2019-02-20T16:12:43.180Z,31.10
2019-02-20T16:15:14.737Z,32.07
2019-02-20T16:17:46.063Z,33.50
2019-02-20T16:20:15.230Z,31.23
2019-02-20T16:22:43.746Z,29.85
2019-02-20T16:25:14.026Z,37.23
2019-02-20T16:27:47.012Z,32.23
2019-02-20T16:30:14.611Z,31.10
2019-02-20T16:32:44.402Z,34.30
2019-02-20T16:35:13.679Z,31.43
2019-02-20T16:37:42.785Z,27.32
2019-02-20T16:40:15.561Z,35.83
2019-02-20T16:42:44.140Z,29.90
2019-02-20T16:45:16.921Z,33.90
2019-02-20T16:47:45.800Z,37.63
2019-02-20T16:50:15.027Z,34.47
2019-02-20T16:52:43.890Z,56.83
2019-02-20T16:55:19.281Z,43.95
2019-02-20T16:57:43.410Z,48.08
2019-02-20T17:00:14.557Z,45.13
2019-02-20T17:02:43.651Z,40.30
2019-02-20T17:05:15.906Z,34.60
2019-02-20T17:07:44.800Z,31.75
2019-02-20T17:10:15.337Z,38.03
2019-02-20T17:12:44.054Z,36.33
2019-02-20T17:15:14.029Z,33.20
2019-02-20T17:17:42.611Z,34.00
2019-02-20T17:20:14.268Z,37.23
2019-02-20T17:22:43.153Z,40.57
2019-02-20T17:25:12.982Z,36.47
2019-02-20T17:27:41.763Z,35.27
2019-02-20T17:30:15.867Z,39.40
2019-02-20T17:32:45.173Z,39.53
2019-02-20T17:35:14.665Z,44.47
2019-02-20T17:37:43.912Z,45.73
2019-02-20T17:40:15.443Z,41.43
2019-02-20T17:42:44.306Z,37.77
2019-02-20T17:45:14.556Z,47.65
2019-02-20T17:47:43.614Z,44.30
2019-02-20T17:50:13.425Z,45.83
2019-02-20T17:52:42.032Z,48.83
2019-02-20T17:55:12.124Z,43.77
2019-02-20T17:57:41.136Z,49.30
2019-02-20T18:00:11.729Z,45.20
2019-02-20T18:02:44.735Z,47.53
2019-02-20T18:05:13.941Z,53.47
2019-02-20T18:10:41.714Z,48.57
2019-02-20T18:13:41.853Z,55.20
2019-02-20T18:16:10.720Z,51.23
2019-02-20T18:19:12.999Z,58.77
2019-02-20T18:21:43.631Z,78.17
2019-02-20T18:24:17.688Z,102.13
2019-02-20T18:26:53.611Z,118.33
2019-02-20T18:29:22.396Z,101.20
2019-02-20T18:31:51.267Z,78.87
2019-02-20T18:34:19.851Z,74.53
2019-02-20T18:36:48.531Z,66.85
2019-02-20T18:39:18.398Z,56.20
2019-02-20T18:41:47.882Z,57.48
2019-02-20T18:44:16.738Z,54.27
2019-02-20T18:47:10.304Z,52.45
2019-02-20T18:49:39.253Z,55.53
2019-02-20T18:52:41.668Z,59.50
2019-02-20T18:55:11.445Z,67.37
2019-02-20T18:58:10.676Z,75.23
2019-02-20T19:00:50.970Z,77.77
2019-02-20T19:03:41.032Z,84.37
2019-02-20T19:06:09.759Z,95.13
2019-02-20T19:11:57.580Z,90.57
2019-02-20T19:14:49.947Z,98.42
2019-02-20T19:17:39.286Z,105.30
2019-02-20T19:20:20.228Z,97.82
2019-02-20T19:22:59.773Z,102.07
2019-02-20T19:28:25.374Z,108.50
2019-02-20T19:31:14.598Z,91.05
2019-02-20T19:33:48.417Z,97.30
2019-02-20T19:36:24.777Z,93.60
2019-02-20T19:39:07.278Z,98.25
2019-02-20T19:41:39.128Z,104.77
2019-02-20T19:44:09.433Z,100.67
2019-02-20T19:46:45.908Z,107.27
2019-02-20T19:49:25.867Z,118.10
2019-02-20T19:52:08.151Z,94.83
2019-02-20T19:54:42.210Z,85.62
2019-02-20T19:57:15.091Z,94.47
2019-02-20T19:59:45.441Z,79.63
2019-02-20T20:02:27.819Z,78.77
2019-02-20T20:05:02.905Z,78.70
2019-02-20T20:07:42.456Z,80.90
2019-02-20T20:10:30.805Z,79.13
2019-02-20T20:13:01.531Z,77.32
2019-02-20T20:15:48.044Z,80.60
2019-02-20T20:18:19.232Z,81.65
2019-02-20T20:20:51.029Z,83.55
2019-02-20T20:23:33.024Z,80.63
2019-02-20T20:26:06.283Z,88.40
2019-02-20T20:28:42.585Z,93.87
2019-02-20T20:31:18.938Z,101.47
2019-02-20T20:33:56.533Z,107.63
2019-02-20T20:36:30.842Z,101.73
2019-02-20T20:39:19.813Z,91.80
2019-02-20T20:41:59.446Z,82.95
2019-02-20T20:44:32.655Z,99.10
2019-02-20T20:47:03.140Z,97.00
2019-02-20T20:49:45.716Z,87.23
2019-02-20T20:52:18.864Z,85.05
2019-02-20T20:55:00.560Z,106.13
2019-02-20T20:57:30.159Z,129.53
2019-02-20T21:00:00.528Z,136.10
2019-02-20T21:02:31.647Z,134.78
2019-02-20T21:05:19.046Z,132.07
2019-02-20T21:07:51.025Z,131.22
2019-02-20T21:10:21.433Z,117.17
2019-02-20T21:13:09.994Z,123.53
2019-02-20T21:15:56.843Z,126.77
2019-02-20T21:18:39.408Z,135.78
2019-02-20T21:21:09.847Z,144.60
2019-02-20T21:23:56.761Z,144.87
2019-02-20T21:26:43.803Z,150.85
2019-02-20T21:29:15.210Z,137.65
2019-02-20T21:31:45.855Z,143.90
2019-02-20T21:34:15.947Z,138.03
2019-02-20T21:36:46.580Z,136.57
2019-02-20T21:39:16.624Z,148.57
2019-02-20T21:41:49.893Z,134.97
2019-02-20T21:44:20.309Z,164.47
2019-02-20T21:47:05.690Z,145.53
2019-02-20T21:50:04.170Z,169.93
2019-02-20T21:52:50.586Z,154.50
2019-02-20T21:55:20.998Z,141.03
2019-02-20T21:58:07.806Z,127.53
2019-02-20T22:01:00.562Z,124.27
2019-02-20T22:03:48.998Z,117.83
2019-02-20T22:06:37.468Z,114.10
2019-02-20T22:09:08.209Z,138.30
2019-02-20T22:14:28.690Z,174.40
2019-02-20T22:19:58.043Z,141.40
2019-02-20T22:22:34.889Z,140.03
2019-02-20T22:25:17.185Z,131.97
2019-02-20T22:27:56.534Z,128.40
2019-02-20T22:30:38.929Z,117.23
2019-02-20T22:33:16.841Z,123.00
2019-02-20T22:36:06.809Z,111.37
2019-02-20T22:38:50.879Z,115.03
2019-02-20T22:41:37.266Z,114.37
2019-02-20T22:44:24.682Z,122.37
2019-02-20T22:47:00.846Z,122.05
2019-02-20T22:49:34.338Z,132.63
2019-02-20T22:52:04.663Z,126.40
2019-02-20T22:54:38.058Z,118.80
2019-02-20T22:57:24.762Z,120.97
2019-02-20T23:00:02.071Z,118.90
2019-02-20T23:02:42.614Z,117.30
2019-02-20T23:05:31.845Z,101.83
2019-02-20T23:08:08.378Z,117.80
2019-02-20T23:10:45.348Z,140.83
2019-02-20T23:13:15.768Z,131.10
2019-02-20T23:16:08.683Z,133.03
2019-02-20T23:18:37.717Z,149.67
2019-02-20T23:21:36.481Z,176.70
2019-02-20T23:24:06.419Z,165.93
2019-02-20T23:27:05.613Z,173.93
2019-02-20T23:29:34.488Z,175.37
2019-02-20T23:32:37.290Z,154.90
2019-02-20T23:35:07.387Z,138.33
2019-02-20T23:37:42.327Z,114.17
2019-02-20T23:40:11.236Z,101.83
2019-02-20T23:42:40.406Z,104.20
2019-02-20T23:45:09.499Z,100.38
2019-02-20T23:47:38.901Z,92.33
2019-02-20T23:50:28.673Z,95.47
2019-02-20T23:52:58.385Z,99.30
2019-02-20T23:55:57.796Z,103.47
2019-02-20T23:58:26.785Z,101.53
